• Join FlightAware (Why Join?)
  • Login
  • US Flag 
03:54PM EDT


 

Airport Tracker/Info


-or-


 

Live Flight TrackerFlight Track Log ✈ N323EG ✈ 16-Jan-2014 ✈ KSDL - KEGE

Flight Track Log - Related Links

Times and Time Zones

All times are in EST time to prevent confusion due to time zone crossing. See the N323EG flight status page for this flight to view local times or setup timezone preferences in your user account.

Time Position Orientation Groundspeed Altitude Reporting Facility
EST Latitude Longitude Course Direction KTS MPH feet Rate Location/Type
05:04PM 33.6167 -111.9333 270° West 177 204 2,500  Level Phoenix TRACON
05:05PM 33.6167 -111.9667 270° West 190 219 4,400 2,580 Climbing Phoenix TRACON
05:06PM 33.6622 -111.9569 10° North 226 260 6,100 2,220 Climbing Albuquerque Center
05:07PM 33.7203 -111.8947 42° Northeast 277 319 8,700 2,820 Climbing Albuquerque Center
05:08PM 33.7803 -111.8283 43° Northeast 293 337 12,000 3,060 Climbing Albuquerque Center
05:09PM 33.8469 -111.7803 31° Northeast 282 325 15,100 2,640 Climbing Albuquerque Center
05:10PM 33.9433 -111.7556 12° North 300 345 17,500 1,980 Climbing Albuquerque Center
05:11PM 34.0417 -111.7308 12° North 324 373 19,200 1,500 Climbing Albuquerque Center
05:12PM 34.1089 -111.6717 36° Northeast 358 412 20,600 1,560 Climbing Albuquerque Center
05:13PM 34.2053 -111.5769 39° Northeast 372 428 22,500 1,680 Climbing Albuquerque Center
05:14PM 34.2875 -111.4961 39° Northeast 379 436 24,100 1,500 Climbing Albuquerque Center
05:15PM 34.3703 -111.4131 40° Northeast 384 442 25,700 1,500 Climbing Albuquerque Center
05:16PM 34.4536 -111.3300 39° Northeast 387 445 27,200 1,320 Climbing Albuquerque Center
05:17PM 34.5386 -111.2453 39° Northeast 392 451 28,500 1,260 Climbing Albuquerque Center
05:18PM 34.6236 -111.1583 40° Northeast 398 458 29,900 1,500 Climbing Albuquerque Center
05:19PM 34.7283 -111.0544 39° Northeast 403 464 31,700 1,560 Climbing Albuquerque Center
05:20PM 34.8142 -110.9667 40° Northeast 404 465 33,200 1,440 Climbing Albuquerque Center
05:21PM 34.8994 -110.8786 40° Northeast 404 465 34,700 840 Climbing Albuquerque Center
05:22PM 34.9858 -110.7886 40° Northeast 407 468 35,000 480 Climbing Albuquerque Center
05:23PM 35.0864 -110.6858 40° Northeast 423 487 35,800 900 Climbing Albuquerque Center
05:24PM 35.1728 -110.5989 39° Northeast 421 484 36,900 540 Climbing Albuquerque Center
05:25PM 35.2722 -110.4936 41° Northeast 422 486 37,000 360 Climbing Albuquerque Center
05:26PM 35.3606 -110.4058 39° Northeast 425 489 37,700 1,020 Climbing Albuquerque Center
05:27PM 35.4572 -110.3042 41° Northeast 414 476 39,200 1,440 Climbing Albuquerque Center
05:28PM 35.5381 -110.2244 39° Northeast 397 457 40,700 840 Climbing Albuquerque Center
05:29PM 35.6369 -110.1514 31° Northeast 374 430 41,000 240 Climbing Albuquerque Center
05:31PM 35.7278 -110.0886 29° Northeast 383 441 41,200 660 Climbing Albuquerque Center
05:32PM 35.8328 -110.0158 29° Northeast 386 444 42,400 840 Climbing Albuquerque Center
05:33PM 35.9208 -109.9550 29° Northeast 381 438 43,000 240 Climbing Albuquerque Center
05:34PM 36.0256 -109.8794 30° Northeast 385 443 43,000  Level Albuquerque Center
05:35PM 36.1203 -109.8119 30° Northeast 397 457 43,000  Level Albuquerque Center
05:36PM 36.2175 -109.7456 29° Northeast 408 470 43,000  Level Albuquerque Center
05:37PM 36.3286 -109.6669 30° Northeast 410 472 43,000  Level Denver Center
05:38PM 36.4364 -109.5903 30° Northeast 400 460 43,000  Level Denver Center
05:39PM 36.5303 -109.5228 30° Northeast 403 464 43,000 -360 Level Denver Center
05:40PM 36.6400 -109.4439 30° Northeast 405 466 42,300 -780 Descending Denver Center
05:41PM 36.7292 -109.3806 30° Northeast 389 448 41,500 -660 Descending Denver Center
05:42PM 36.8153 -109.3181 30° Northeast 374 430 41,000 -300 Descending Denver Center
05:43PM 36.9144 -109.2458 30° Northeast 370 426 41,000  Level Denver Center
05:44PM 37.0014 -109.1844 29° Northeast 373 429 41,000  Level Denver Center
05:45PM 37.1033 -109.1092 30° Northeast 379 436 41,000  Level Denver Center
05:46PM 37.1911 -109.0447 30° Northeast 381 438 41,000  Level Denver Center
05:47PM 37.2931 -108.9703 30° Northeast 379 436 41,000  Level Denver Center
05:48PM 37.3803 -108.9056 31° Northeast 380 437 41,000  Level Denver Center
05:49PM 37.4822 -108.8319 30° Northeast 380 437 41,000 -180 Level Denver Center
05:50PM 37.5686 -108.7661 31° Northeast 379 436 40,700 -600 Descending Denver Center
05:51PM 37.6689 -108.6919 30° Northeast 374 430 39,800 -840 Descending Denver Center
05:52PM 37.7519 -108.6303 30° Northeast 363 418 39,000 -840 Descending Denver Center
05:53PM 37.8511 -108.5581 30° Northeast 365 420 38,100 -780 Descending Denver Center
05:54PM 37.9378 -108.4950 30° Northeast 373 429 37,400 -540 Descending Denver Center
05:55PM 38.0253 -108.4269 31° Northeast 381 438 37,000 -240 Descending Denver Center
05:56PM 38.1197 -108.3531 32° Northeast 381 438 37,000  Level Denver Center
05:57PM 38.2214 -108.2778 30° Northeast 379 436 37,000  Level Denver Center
05:59PM 38.3081 -108.2114 31° Northeast 380 437 37,000  Level Denver Center
06:00PM 38.4106 -108.1353 30° Northeast 382 440 37,000  Level Denver Center
06:01PM 38.4961 -108.0706 31° Northeast 377 434 37,000  Level Denver Center
06:02PM 38.5972 -107.9933 31° Northeast 378 435 37,000  Level Denver Center
06:03PM 38.6828 -107.9278 31° Northeast 377 434 37,000  Level Denver Center
06:04PM 38.7831 -107.8494 31° Northeast 378 435 37,000 -240 Level Denver Center
06:05PM 38.8692 -107.7894 28° Northeast 372 428 36,600 -1,200 Descending Denver Center
06:06PM 38.9733 -107.7747 North 342 394 34,500 -1,740 Descending Denver Center
06:07PM 39.0628 -107.7661 North 337 388 33,100 -780 Descending Denver Center
06:08PM 39.1636 -107.7561 North 328 377 33,000 -540 Descending Denver Center
06:09PM 39.2533 -107.7469 North 336 387 32,000 -1,020 Descending Denver Center
06:10PM 39.3275 -107.7394 North 336 387 31,000 -540 Descending Denver Center
06:11PM 39.4406 -107.7286 North 322 371 31,000 -900 Level Denver Center
06:12PM 39.5344 -107.6992 14° North 326 375 29,200 -2,280 Descending Denver Center
06:13PM 39.5931 -107.6106 49° Northeast 342 394 26,400 -3,300 Descending Denver Center
06:14PM 39.6581 -107.5003 53° Northeast 345 397 22,500 -3,420 Descending Denver Center
06:15PM 39.7150 -107.4025 53° Northeast 352 405 19,400 -2,340 Descending Denver Center
06:16PM 39.7794 -107.2953 52° Northeast 339 390 17,700 -1,680 Descending Denver Center